Time;durP1;ratioP1;P1;durP2;ratioP2;P2;SDS_P1;SDS_P2;PMS_P1;PMS_P2;Temp;Humidity;BMP_temperature;BMP_pressure;BME280_temperature;BME280_humidity;BME280_pressure;Samples;Min_cycle;Max_cycle;Signal;HPM_P1;HPM_P2
2022/10/05 00:02:36;;;;;;;35.20;23.30;;;8.80;99.90;;;;;;6216135;23;20024;-88
2022/10/05 00:05:31;;;;;;;38.88;23.00;;;8.90;99.90;;;;;;6216707;23;20021;-87
2022/10/05 00:08:20;;;;;;;41.22;23.77;;;9.00;99.90;;;;;;6218331;22;20025;-86
2022/10/05 00:11:11;;;;;;;44.78;24.60;;;9.10;99.90;;;;;;6217969;23;20021;-87
2022/10/05 00:14:00;;;;;;;41.08;24.33;;;9.10;99.90;;;;;;6193050;23;20099;-85
2022/10/05 00:16:48;;;;;;;38.78;23.50;;;9.10;99.90;;;;;;6193576;23;20352;-85
2022/10/05 00:19:38;;;;;;;36.55;23.20;;;9.30;99.90;;;;;;6194118;23;20173;-86
2022/10/05 00:22:30;;;;;;;38.33;24.05;;;9.30;99.90;;;;;;6194777;23;20028;-85
2022/10/05 00:25:20;;;;;;;41.08;25.30;;;9.40;99.90;;;;;;6194772;23;20103;-87
2022/10/05 00:28:28;;;;;;;38.88;22.70;;;9.30;99.90;;;;;;6195309;23;20025;-87
2022/10/05 00:31:28;;;;;;;40.85;24.17;;;9.30;99.90;;;;;;6215609;23;20032;-86
2022/10/05 00:34:17;;;;;;;39.83;23.35;;;9.20;99.90;;;;;;6222323;23;20028;-87
2022/10/05 00:37:05;;;;;;;38.63;23.00;;;9.10;99.90;;;;;;6201661;23;20028;-86
2022/10/05 00:39:52;;;;;;;36.25;21.95;;;9.10;99.90;;;;;;6221767;23;20024;-86
2022/10/05 00:43:05;;;;;;;41.40;22.98;;;9.00;99.90;;;;;;6219402;23;20051;-87
2022/10/05 00:46:09;;;;;;;37.33;21.83;;;9.10;99.90;;;;;;6218683;23;20416;-86
2022/10/05 00:49:18;;;;;;;37.72;22.70;;;9.00;99.90;;;;;;6216216;23;20409;-87
2022/10/05 00:52:21;;;;;;;39.42;23.10;;;9.00;99.90;;;;;;6193824;23;20104;-87
2022/10/05 00:55:23;;;;;;;38.92;23.20;;;9.10;99.90;;;;;;6215169;23;20440;-85
2022/10/05 00:58:29;;;;;;;36.58;22.63;;;9.00;99.90;;;;;;6195611;23;20021;-87
2022/10/05 01:01:30;;;;;;;41.88;25.33;;;9.10;99.90;;;;;;6219774;23;20071;-85
2022/10/05 01:04:38;;;;;;;45.03;25.67;;;9.10;99.90;;;;;;6217353;23;20031;-86
2022/10/05 01:07:37;;;;;;;43.75;25.58;;;9.20;99.90;;;;;;6222115;23;20063;-85
2022/10/05 01:10:26;;;;;;;43.30;26.50;;;9.30;99.90;;;;;;6221463;23;20024;-87
2022/10/05 01:13:22;;;;;;;42.60;25.88;;;9.40;99.90;;;;;;6220640;23;20074;-87
2022/10/05 01:16:34;;;;;;;40.38;25.75;;;9.40;99.90;;;;;;6224247;23;20036;-86
2022/10/05 01:19:27;;;;;;;43.67;24.00;;;9.30;99.90;;;;;;6194272;23;20024;-86
2022/10/05 01:22:40;;;;;;;44.20;25.38;;;9.20;99.90;;;;;;6215987;23;20042;-86
2022/10/05 01:26:04;;;;;;;39.95;25.88;;;9.20;99.90;;;;;;6214315;23;20024;-88
2022/10/05 01:29:15;;;;;;;43.95;25.83;;;9.30;99.90;;;;;;6194958;23;20032;-87
2022/10/05 01:32:30;;;;;;;41.42;25.25;;;9.20;99.90;;;;;;6194345;23;20028;-87
2022/10/05 01:35:43;;;;;;;46.85;25.73;;;9.10;99.90;;;;;;6215386;23;20020;-86
2022/10/05 01:38:46;;;;;;;43.20;27.73;;;9.30;99.90;;;;;;6216425;23;20056;-86
2022/10/05 01:41:45;;;;;;;42.60;26.27;;;9.30;99.90;;;;;;6216354;23;20091;-87
2022/10/05 01:44:47;;;;;;;52.22;27.45;;;9.30;99.90;;;;;;6214890;23;20039;-87
2022/10/05 01:47:47;;;;;;;43.45;25.48;;;9.30;99.90;;;;;;6217046;23;20032;-86
2022/10/05 01:50:46;;;;;;;43.70;26.52;;;9.40;99.90;;;;;;6216094;23;20107;-86
2022/10/05 01:53:45;;;;;;;41.08;24.85;;;9.30;99.90;;;;;;6214679;23;20143;-88
2022/10/05 01:56:48;;;;;;;40.75;24.90;;;9.40;99.90;;;;;;6216346;23;20043;-85
2022/10/05 02:00:02;;;;;;;37.88;23.35;;;9.50;99.90;;;;;;6193241;23;20099;-86
2022/10/05 02:03:07;;;;;;;38.25;23.23;;;9.60;99.90;;;;;;6215024;23;20024;-86
2022/10/05 02:06:09;;;;;;;37.15;23.05;;;9.50;99.90;;;;;;6214449;23;20024;-86
2022/10/05 02:09:15;;;;;;;39.25;23.85;;;9.60;99.90;;;;;;6214399;23;20030;-86
2022/10/05 02:12:13;;;;;;;34.72;21.77;;;9.60;99.90;;;;;;6215005;23;20032;-86
2022/10/05 02:15:12;;;;;;;37.58;22.45;;;9.50;91.90;;;;;;6214376;23;20035;-86
2022/10/05 02:18:08;;;;;;;34.05;21.42;;;9.40;89.60;;;;;;6217125;23;20031;-87
2022/10/05 02:20:57;;;;;;;35.83;22.35;;;9.40;76.90;;;;;;6217797;23;20020;-85
2022/10/05 02:23:46;;;;;;;31.80;21.75;;;9.40;78.70;;;;;;6197157;23;20048;-86
2022/10/05 02:26:36;;;;;;;29.02;20.70;;;9.30;62.30;;;;;;6217189;23;20300;-86
2022/10/05 02:29:29;;;;;;;32.10;21.27;;;9.30;63.00;;;;;;6216768;23;20046;-86
2022/10/05 02:32:19;;;;;;;;;;;9.30;68.90;;;;;;6193341;23;20107;-88
2022/10/05 02:35:14;;;;;;;31.45;19.58;;;9.30;45.70;;;;;;6193624;23;19916;-87
2022/10/05 02:38:18;;;;;;;34.25;21.02;;;9.20;55.50;;;;;;6213892;23;20020;-85
2022/10/05 02:41:05;;;;;;;31.65;21.95;;;9.10;28.70;;;;;;6194370;23;20036;-85
2022/10/05 02:44:07;;;;;;;35.80;22.52;;;9.00;13.00;;;;;;6215757;23;20159;-87
2022/10/05 02:47:28;;;;;;;39.35;22.35;;;8.90;26.30;;;;;;6215190;23;20328;-86
2022/10/05 02:50:27;;;;;;;37.85;23.70;;;8.80;82.50;;;;;;6214700;23;20029;-87
2022/10/05 02:53:24;;;;;;;36.88;24.15;;;8.80;99.90;;;;;;6214101;23;20428;-86
2022/10/05 02:56:14;;;;;;;35.15;23.42;;;8.90;99.90;;;;;;6195262;23;20025;-85
2022/10/05 02:59:28;;;;;;;44.00;25.25;;;8.90;99.90;;;;;;6191535;23;20025;-86
2022/10/05 03:02:18;;;;;;;40.70;26.15;;;8.90;99.90;;;;;;6215386;23;20420;-88
2022/10/05 03:05:18;;;;;;;37.60;26.58;;;9.20;99.90;;;;;;6193233;23;20111;-87
2022/10/05 03:08:15;;;;;;;38.33;24.30;;;9.30;99.90;;;;;;6215319;23;20138;-87
2022/10/05 03:11:17;;;;;;;36.35;24.63;;;9.30;99.90;;;;;;6192332;23;20032;-89
2022/10/05 03:14:21;;;;;;;34.80;23.10;;;9.20;99.90;;;;;;6192403;23;20031;-87
2022/10/05 03:17:22;;;;;;;36.88;25.10;;;9.20;99.90;;;;;;6213796;23;20020;-86
2022/10/05 03:20:51;;;;;;;38.60;23.08;;;9.30;99.90;;;;;;6213912;23;20028;-87
2022/10/05 03:23:59;;;;;;;36.08;24.73;;;9.30;99.90;;;;;;6165806;23;20052;-87
2022/10/05 03:26:57;;;;;;;39.55;25.38;;;9.40;99.90;;;;;;6215887;23;20029;-88
2022/10/05 03:30:11;;;;;;;35.95;23.60;;;9.40;99.90;;;;;;6215194;23;20323;-87
2022/10/05 03:33:39;;;;;;;34.70;23.25;;;9.30;99.90;;;;;;6218823;23;20134;-87
2022/10/05 03:36:37;;;;;;;35.70;24.88;;;9.30;99.90;;;;;;6081879;23;20026;-87
2022/10/05 03:39:37;;;;;;;36.78;23.52;;;9.40;99.90;;;;;;6097996;23;20033;-88
2022/10/05 03:42:59;;;;;;;36.90;23.50;;;9.50;99.90;;;;;;6226604;23;20012;-88
2022/10/05 03:46:01;;;;;;;35.50;23.48;;;9.60;99.90;;;;;;6222007;23;20028;-87
2022/10/05 03:49:07;;;;;;;27.60;17.20;;;9.50;99.90;;;;;;6199010;23;20084;-87
2022/10/05 03:52:25;;;;;;;37.75;24.08;;;9.50;99.90;;;;;;6216484;23;20038;-89
2022/10/05 03:55:18;;;;;;;32.47;23.30;;;9.40;72.30;;;;;;6214114;23;20021;-87
2022/10/05 03:58:29;;;;;;;34.42;22.63;;;9.30;70.50;;;;;;6193247;23;20036;-87
2022/10/05 04:01:24;;;;;;;37.30;23.48;;;9.20;88.60;;;;;;6170923;23;20025;-87
2022/10/05 04:04:21;;;;;;;37.00;23.95;;;9.30;99.90;;;;;;6213435;23;20328;-88
2022/10/05 04:07:24;;;;;;;37.92;25.85;;;9.30;99.90;;;;;;6215084;23;20040;-87
2022/10/05 04:10:22;;;;;;;;;;;9.50;99.90;;;;;;6193745;23;20029;-88
2022/10/05 04:13:16;;;;;;;35.03;24.17;;;9.50;99.90;;;;;;6212935;23;20006;-89
2022/10/05 04:16:28;;;;;;;39.90;25.25;;;9.60;87.70;;;;;;6214574;23;20024;-87
2022/10/05 04:19:29;;;;;;;37.35;22.98;;;9.50;25.60;;;;;;6214925;23;20029;-87
2022/10/05 04:22:35;;;;;;;34.13;23.30;;;9.50;8.30;;;;;;6219965;23;20111;-87
2022/10/05 04:25:38;;;;;;;36.58;23.00;;;9.40;1.00;;;;;;6196081;23;20055;-83
2022/10/05 04:28:52;;;;;;;34.83;24.17;;;9.10;1.00;;;;;;6215638;23;20028;-83
2022/10/05 04:31:48;;;;;;;37.60;24.48;;;9.00;1.00;;;;;;6216434;23;20114;-83
2022/10/05 04:35:00;;;;;;;40.33;25.80;;;8.90;27.20;;;;;;6218565;23;20032;-83
2022/10/05 04:38:25;;;;;;;42.17;24.75;;;8.90;95.60;;;;;;6215901;23;20038;-83
2022/10/05 04:41:49;;;;;;;46.15;27.98;;;8.90;87.60;;;;;;6213431;23;20103;-83
2022/10/05 04:45:03;;;;;;;45.17;29.15;;;8.90;99.90;;;;;;6215942;23;20028;-83
2022/10/05 04:48:02;;;;;;;43.53;28.52;;;9.00;99.90;;;;;;6216804;23;20052;-82
2022/10/05 04:51:04;;;;;;;48.05;29.67;;;9.00;99.90;;;;;;6193631;23;20031;-83
2022/10/05 04:54:23;;;;;;;46.87;28.30;;;9.20;99.90;;;;;;6216495;23;20107;-82
2022/10/05 04:57:22;;;;;;;45.22;28.52;;;9.30;99.90;;;;;;6215555;23;20289;-83
2022/10/05 05:00:19;;;;;;;45.15;28.25;;;9.30;99.90;;;;;;6195993;23;20103;-88
2022/10/05 05:03:14;;;;;;;45.53;27.25;;;9.30;99.90;;;;;;6216974;23;20075;-89
2022/10/05 05:06:16;;;;;;;47.42;28.00;;;9.30;79.00;;;;;;6219366;23;20320;-88
2022/10/05 05:09:37;;;;;;;52.53;29.52;;;9.30;79.60;;;;;;6217639;23;20039;-86
2022/10/05 05:12:27;;;;;;;44.65;28.77;;;9.30;63.40;;;;;;6217433;23;20033;-87
2022/10/05 05:15:29;;;;;;;44.80;29.50;;;9.30;74.60;;;;;;6217141;23;20427;-87
2022/10/05 05:18:34;;;;;;;46.15;28.13;;;9.30;46.80;;;;;;6217974;23;20359;-88
2022/10/05 05:21:34;;;;;;;45.05;28.80;;;9.30;55.50;;;;;;6194971;23;20021;-86
2022/10/05 05:24:28;;;;;;;42.75;28.42;;;9.30;95.40;;;;;;6196318;23;20036;-88
2022/10/05 05:27:27;;;;;;;43.95;27.70;;;9.30;44.00;;;;;;6216419;23;20025;-88
2022/10/05 05:30:24;;;;;;;44.80;27.35;;;9.20;13.90;;;;;;6216655;23;20103;-87
2022/10/05 05:33:40;;;;;;;38.40;25.35;;;9.10;1.00;;;;;;6195534;23;20028;-85
2022/10/05 05:36:27;;;;;;;;;;;8.80;1.00;;;;;;6216572;23;20104;-86
2022/10/05 05:39:24;;;;;;;44.85;27.13;;;8.70;1.00;;;;;;6195050;23;19923;-84
2022/10/05 05:42:21;;;;;;;47.08;28.63;;;8.80;99.90;;;;;;6196570;23;20024;-83
2022/10/05 05:45:33;;;;;;;47.05;29.88;;;8.90;99.90;;;;;;6214951;23;20028;-83
2022/10/05 05:48:42;;;;;;;38.03;22.57;;;8.90;99.90;;;;;;6216949;23;20115;-85
2022/10/05 05:51:34;;;;;;;52.90;30.73;;;8.80;99.90;;;;;;6192973;23;20024;-84
2022/10/05 05:54:31;;;;;;;50.85;29.65;;;8.70;99.90;;;;;;6216593;23;20051;-84
2022/10/05 05:57:27;;;;;;;49.08;28.90;;;8.70;99.90;;;;;;6217284;23;20135;-84
2022/10/05 06:00:16;;;;;;;50.38;30.75;;;8.70;99.90;;;;;;6215612;23;20035;-84
2022/10/05 06:03:40;;;;;;;54.20;32.53;;;8.70;99.90;;;;;;6195298;23;20024;-85
2022/10/05 06:06:34;;;;;;;50.17;30.45;;;8.70;99.90;;;;;;6215461;23;20099;-82
2022/10/05 06:09:31;;;;;;;53.85;33.55;;;8.80;99.90;;;;;;6213420;23;20124;-82
2022/10/05 06:12:23;;;;;;;56.70;32.72;;;8.80;99.90;;;;;;6216522;23;20028;-82
2022/10/05 06:15:23;;;;;;;53.72;32.47;;;8.70;99.90;;;;;;6216026;23;20032;-82
2022/10/05 06:18:15;;;;;;;63.80;33.50;;;8.70;99.90;;;;;;6214163;23;20020;-82
2022/10/05 06:21:29;;;;;;;59.28;34.65;;;8.70;99.90;;;;;;6217101;23;20024;-82
2022/10/05 06:24:58;;;;;;;61.28;34.45;;;8.80;99.90;;;;;;6176477;23;20113;-82
2022/10/05 06:27:59;;;;;;;67.88;35.30;;;9.00;99.90;;;;;;6137015;23;20029;-83
2022/10/05 06:31:08;;;;;;;56.15;34.45;;;9.10;99.90;;;;;;6215103;23;20024;-83
2022/10/05 06:34:17;;;;;;;51.28;31.98;;;9.20;99.90;;;;;;6216872;23;20029;-83
2022/10/05 06:37:21;;;;;;;59.28;33.85;;;9.40;99.90;;;;;;6217705;23;20038;-86
2022/10/05 06:40:21;;;;;;;43.15;29.52;;;9.50;99.90;;;;;;6217862;23;20035;-85
2022/10/05 06:43:39;;;;;;;43.08;27.45;;;9.60;99.90;;;;;;6216161;23;20035;-87
2022/10/05 06:46:38;;;;;;;42.60;24.58;;;9.90;99.90;;;;;;6194614;23;20120;-86
2022/10/05 06:49:40;;;;;;;33.15;23.15;;;10.10;99.90;;;;;;6194677;23;20032;-86
2022/10/05 06:52:55;;;;;;;33.08;19.27;;;10.40;98.10;;;;;;6217097;23;20099;-86
2022/10/05 06:56:00;;;;;;;26.90;17.02;;;10.60;1.00;;;;;;6195290;23;20025;-87
2022/10/05 06:58:58;;;;;;;22.90;15.65;;;10.80;1.00;;;;;;6215242;23;20070;-87
2022/10/05 07:01:57;;;;;;;20.83;14.73;;;11.00;38.20;;;;;;6194136;23;20021;-86
2022/10/05 07:05:03;;;;;;;21.90;14.32;;;11.20;99.90;;;;;;6216380;23;20028;-88
2022/10/05 07:08:26;;;;;;;19.02;13.50;;;11.30;1.00;;;;;;6194605;23;20442;-85
2022/10/05 07:11:13;;;;;;;16.50;10.80;;;11.50;1.00;;;;;;6214752;23;20033;-88
2022/10/05 07:14:14;;;;;;;16.02;11.35;;;11.50;99.90;;;;;;6167448;23;20275;-89
2022/10/05 07:17:07;;;;;;;14.70;11.48;;;11.70;1.00;;;;;;6145554;23;20031;-90
2022/10/05 07:20:13;;;;;;;16.75;11.77;;;11.80;99.90;;;;;;6165558;23;20032;-88
2022/10/05 07:23:28;;;;;;;15.77;9.93;;;12.00;1.00;;;;;;6188863;23;20100;-86
2022/10/05 07:26:18;;;;;;;11.95;8.60;;;12.30;99.90;;;;;;6166375;23;20029;-86
2022/10/05 07:29:15;;;;;;;9.27;8.10;;;12.50;95.40;;;;;;6185103;23;20191;-87
2022/10/05 07:32:33;;;;;;;11.90;6.97;;;12.80;1.00;;;;;;6165480;23;20366;-87
2022/10/05 07:38:51;;;;;;;12.82;5.65;;;13.60;99.90;;;;;;6185958;23;20087;-90
2022/10/05 07:41:46;;;;;;;7.07;5.35;;;13.70;1.00;;;;;;6186456;23;20035;-89
2022/10/05 07:44:43;;;;;;;12.75;5.35;;;14.00;1.00;;;;;;6188302;23;20069;-91
2022/10/05 07:47:38;;;;;;;6.32;4.30;;;14.40;1.00;;;;;;6187252;23;20052;-87
2022/10/05 07:50:39;;;;;;;5.72;4.28;;;14.60;1.00;;;;;;6186611;23;20033;-90
2022/10/05 07:53:36;;;;;;;11.00;4.53;;;14.90;99.90;;;;;;6189611;23;20045;-88
2022/10/05 07:56:39;;;;;;;5.60;3.75;;;14.90;99.90;;;;;;6187541;23;20020;-88
2022/10/05 07:59:42;;;;;;;7.15;4.15;;;15.00;99.90;;;;;;6167948;23;20096;-89
2022/10/05 08:02:43;;;;;;;7.20;3.90;;;15.30;99.90;;;;;;6189253;23;20397;-87
2022/10/05 08:05:43;;;;;;;4.05;3.47;;;15.70;99.90;;;;;;6191843;23;20052;-87
2022/10/05 08:08:43;;;;;;;6.57;3.42;;;16.30;99.90;;;;;;6187416;23;20111;-89
2022/10/05 08:11:47;;;;;;;6.80;3.28;;;16.60;99.90;;;;;;6189794;23;20311;-88
2022/10/05 08:14:58;;;;;;;3.45;3.15;;;16.50;99.90;;;;;;6196272;23;20032;-89
2022/10/05 08:17:59;;;;;;;4.93;3.20;;;16.70;99.90;;;;;;6219883;23;20035;-87
2022/10/05 08:20:56;;;;;;;5.10;2.88;;;16.80;99.90;;;;;;6218036;23;20024;-86
2022/10/05 08:23:55;;;;;;;3.70;2.90;;;16.70;99.90;;;;;;6216994;23;20056;-88
2022/10/05 08:27:06;;;;;;;6.32;3.20;;;16.70;99.90;;;;;;6217916;23;20304;-87
2022/10/05 08:30:09;;;;;;;3.58;2.92;;;16.50;99.90;;;;;;6215768;23;20039;-86
2022/10/05 08:33:17;;;;;;;6.95;2.80;;;16.40;99.90;;;;;;6217899;23;20044;-87
2022/10/05 08:36:09;;;;;;;9.68;2.38;;;16.70;99.90;;;;;;6217053;23;20277;-87
2022/10/05 08:39:02;;;;;;;3.13;2.35;;;16.50;99.90;;;;;;6197081;23;20035;-87
2022/10/05 08:42:23;;;;;;;2.40;2.10;;;16.30;99.90;;;;;;6216088;23;20100;-88
2022/10/05 08:45:42;;;;;;;3.38;2.40;;;16.30;99.90;;;;;;6217555;23;20024;-89
2022/10/05 08:48:55;;;;;;;3.08;2.10;;;16.40;99.90;;;;;;6218776;23;20028;-90
2022/10/05 08:51:48;;;;;;;2.42;2.22;;;16.80;99.90;;;;;;6219176;23;20436;-89
2022/10/05 08:54:54;;;;;;;4.18;2.03;;;17.20;99.90;;;;;;6217936;23;20024;-90
2022/10/05 08:57:45;;;;;;;7.28;1.70;;;17.70;99.90;;;;;;6217892;23;20024;-90
2022/10/05 09:00:50;;;;;;;4.10;1.48;;;18.00;99.90;;;;;;6195680;23;20047;-88
2022/10/05 09:04:01;;;;;;;4.43;1.90;;;17.80;99.90;;;;;;6198020;23;20020;-87
2022/10/05 09:07:09;;;;;;;2.92;1.50;;;17.90;99.90;;;;;;6216681;23;20454;-90
2022/10/05 09:10:28;;;;;;;3.92;1.60;;;17.90;99.90;;;;;;6196000;23;20107;-91
2022/10/05 09:13:24;;;;;;;4.85;1.67;;;18.20;99.90;;;;;;6218320;23;20032;-87
2022/10/05 09:16:24;;;;;;;8.63;1.80;;;19.10;99.90;;;;;;6198207;23;20035;-90
2022/10/05 09:19:25;;;;;;;1.85;1.38;;;20.00;99.90;;;;;;6220987;23;20024;-88
2022/10/05 09:22:29;;;;;;;2.95;1.35;;;20.90;99.90;;;;;;6221174;22;20438;-87
2022/10/05 09:25:42;;;;;;;1.98;1.17;;;21.40;98.70;;;;;;6200922;23;20060;-88
2022/10/05 09:28:36;;;;;;;2.47;1.60;;;21.60;91.70;;;;;;6204792;23;20029;-90
2022/10/05 09:31:54;;;;;;;4.32;1.30;;;21.70;80.80;;;;;;6219302;23;20025;-89
2022/10/05 09:35:24;;;;;;;1.15;1.10;;;21.90;71.20;;;;;;6206197;23;20028;-91
2022/10/05 09:38:49;;;;;;;2.13;1.45;;;22.60;59.80;;;;;;6189447;23;20016;-93
2022/10/05 09:41:48;;;;;;;2.90;1.33;;;22.60;55.60;;;;;;6224086;23;20020;-92
2022/10/05 09:45:15;;;;;;;3.22;1.50;;;22.80;41.90;;;;;;6222799;23;20027;-89
2022/10/05 09:48:43;;;;;;;2.40;1.38;;;23.60;43.30;;;;;;6204714;23;20029;-89
2022/10/05 09:51:57;;;;;;;2.25;1.55;;;23.50;25.80;;;;;;6222103;23;20028;-90
2022/10/05 09:55:00;;;;;;;3.35;1.23;;;23.30;24.30;;;;;;6226078;23;20021;-89
2022/10/05 09:58:22;;;;;;;1.92;1.25;;;23.20;22.50;;;;;;6224565;23;20017;-87
2022/10/05 10:01:40;;;;;;;3.50;1.20;;;23.10;31.20;;;;;;6217047;23;20025;-89
2022/10/05 10:05:04;;;;;;;4.72;1.60;;;23.50;19.60;;;;;;6218834;23;20044;-89
2022/10/05 10:08:04;;;;;;;3.90;1.42;;;23.70;14.20;;;;;;6195778;23;20035;-86
2022/10/05 10:11:01;;;;;;;2.83;1.33;;;23.90;10.80;;;;;;6218362;22;20086;-86
2022/10/05 10:14:04;;;;;;;5.43;1.27;;;24.00;7.90;;;;;;6216162;23;20102;-87
2022/10/05 10:17:17;;;;;;;1.60;1.30;;;24.40;15.00;;;;;;6220423;23;20028;-89
2022/10/05 10:20:17;;;;;;;3.03;1.25;;;24.20;5.30;;;;;;6224014;22;20076;-88
2022/10/05 10:23:58;;;;;;;1.42;1.13;;;24.40;1.40;;;;;;6227243;23;20025;-89
2022/10/05 10:27:11;;;;;;;1.95;1.35;;;24.30;1.00;;;;;;6217103;23;20427;-87
2022/10/05 10:30:46;;;;;;;3.08;1.38;;;23.90;1.00;;;;;;6226927;23;20094;-90
2022/10/05 10:33:56;;;;;;;2.28;1.20;;;23.90;1.00;;;;;;6220324;23;20429;-85
2022/10/05 10:36:55;;;;;;;3.65;1.20;;;24.20;1.00;;;;;;6223780;23;20098;-87
2022/10/05 10:40:07;;;;;;;6.57;1.33;;;24.10;1.00;;;;;;6223185;23;20400;-87
2022/10/05 10:43:21;;;;;;;2.42;1.25;;;23.90;1.00;;;;;;6236373;23;20029;-88
2022/10/05 10:46:10;;;;;;;2.33;1.15;;;23.80;1.00;;;;;;6199707;23;20052;-88
2022/10/05 10:49:07;;;;;;;2.40;1.20;;;24.10;1.00;;;;;;6219397;23;20058;-88
2022/10/05 10:52:21;;;;;;;2.22;1.55;;;23.90;1.00;;;;;;6219109;23;20103;-90
2022/10/05 10:55:36;;;;;;;7.25;2.03;;;24.30;1.00;;;;;;6217822;23;20044;-91
2022/10/05 10:58:45;;;;;;;1.58;1.30;;;24.10;1.00;;;;;;6219397;23;20098;-88
2022/10/05 11:02:04;;;;;;;1.75;1.10;;;24.60;1.00;;;;;;6194209;23;20079;-89
2022/10/05 11:05:13;;;;;;;4.75;1.70;;;24.60;1.00;;;;;;6216523;23;20103;-85
2022/10/05 11:08:23;;;;;;;2.63;1.60;;;24.90;1.00;;;;;;6217357;23;20025;-90
2022/10/05 11:11:29;;;;;;;2.70;1.52;;;25.00;1.00;;;;;;6216052;23;20020;-91
2022/10/05 11:14:38;;;;;;;2.50;1.50;;;24.60;1.00;;;;;;6195458;23;20550;-90
2022/10/05 11:18:03;;;;;;;2.25;1.70;;;24.40;1.00;;;;;;6195090;23;20028;-90
2022/10/05 11:21:40;;;;;;;;;;;;;;;;;;;;;
2022/10/05 11:24:54;;;;;;;2.92;1.58;;;26.80;1.00;;;;;;6222677;23;20055;-91
2022/10/05 11:27:52;;;;;;;4.50;1.50;;;26.50;1.00;;;;;;6222726;23;20025;-92
2022/10/05 11:30:58;;;;;;;3.30;1.48;;;26.40;1.00;;;;;;6224638;23;20032;-90
2022/10/05 11:34:07;;;;;;;4.20;1.38;;;25.70;1.00;;;;;;6197994;23;20103;-92
2022/10/05 11:37:35;;;;;;;3.25;1.88;;;25.70;1.00;;;;;;6220682;23;20024;-89
2022/10/05 11:40:38;;;;;;;2.90;1.50;;;25.40;1.00;;;;;;6218863;23;20048;-90
2022/10/05 11:43:47;;;;;;;1.70;1.50;;;25.50;1.00;;;;;;6221072;23;20052;-92
2022/10/05 11:46:53;;;;;;;2.35;1.38;;;26.30;1.00;;;;;;6198949;23;20100;-90
2022/10/05 11:50:16;;;;;;;3.85;1.10;;;26.90;1.00;;;;;;6219381;23;20024;-92
2022/10/05 11:53:32;;;;;;;1.42;0.85;;;26.60;1.00;;;;;;6172062;23;20020;-90
2022/10/05 11:56:58;;;;;;;3.10;1.17;;;26.60;1.00;;;;;;6199263;23;20021;-88
2022/10/05 12:00:00;;;;;;;2.47;1.45;;;26.50;1.00;;;;;;6196547;23;20028;-91
2022/10/05 12:03:18;;;;;;;2.03;1.10;;;25.90;1.00;;;;;;6197150;23;20119;-91
2022/10/05 12:06:43;;;;;;;1.35;1.17;;;26.00;1.00;;;;;;6220421;23;20047;-88
2022/10/05 12:09:33;;;;;;;2.25;1.10;;;26.50;1.00;;;;;;6217701;23;20033;-90
2022/10/05 12:12:26;;;;;;;4.68;1.33;;;25.80;1.00;;;;;;6218565;23;20044;-87
2022/10/05 12:15:35;;;;;;;1.42;1.13;;;25.50;1.00;;;;;;6217349;23;20444;-88
2022/10/05 12:18:31;;;;;;;2.85;1.08;;;25.30;1.00;;;;;;6219354;23;20370;-88
2022/10/05 12:21:36;;;;;;;1.10;0.98;;;25.40;1.00;;;;;;6203436;23;20035;-88
2022/10/05 12:24:50;;;;;;;1.20;0.80;;;25.40;1.00;;;;;;6204396;23;20024;-87
2022/10/05 12:27:42;;;;;;;1.02;0.50;;;26.40;1.00;;;;;;6222601;22;20103;-88
2022/10/05 12:31:25;;;;;;;0.75;0.50;;;26.60;1.00;;;;;;6222589;23;20025;-89
2022/10/05 12:34:41;;;;;;;2.08;0.70;;;26.20;1.00;;;;;;6193719;23;20343;-87
2022/10/05 12:37:35;;;;;;;0.43;0.38;;;26.60;1.00;;;;;;6220132;23;20020;-88
2022/10/05 12:40:36;;;;;;;1.08;0.38;;;26.60;1.00;;;;;;6194967;23;20027;-89
2022/10/05 12:43:34;;;;;;;1.17;0.40;;;25.90;1.00;;;;;;6218262;23;20021;-87
2022/10/05 12:46:46;;;;;;;1.00;0.30;;;26.10;1.00;;;;;;6196247;23;20070;-87
2022/10/05 12:49:48;;;;;;;0.52;0.50;;;26.60;1.00;;;;;;6221058;22;20039;-90
2022/10/05 12:52:48;;;;;;;1.90;0.80;;;26.80;1.00;;;;;;6218395;23;20039;-89
2022/10/05 12:55:38;;;;;;;3.20;0.35;;;26.60;1.00;;;;;;6219411;23;20039;-91
2022/10/05 12:58:26;;;;;;;2.25;0.57;;;26.00;1.00;;;;;;6198854;23;20036;-88
2022/10/05 13:01:28;;;;;;;0.57;0.47;;;25.40;1.00;;;;;;6196039;23;20031;-87
2022/10/05 13:04:29;;;;;;;1.15;0.40;;;25.80;1.00;;;;;;6218774;23;20025;-90
2022/10/05 13:11:30;;;;;;;0.88;0.40;;;25.70;1.00;;;;;;6214921;23;20000;-90
2022/10/05 13:15:02;;;;;;;0.40;0.32;;;25.70;1.00;;;;;;6187348;23;20086;-89
2022/10/05 13:18:35;;;;;;;0.63;0.50;;;26.40;1.00;;;;;;6186717;23;20021;-90
2022/10/05 13:21:37;;;;;;;0.80;0.40;;;26.70;1.00;;;;;;6218404;23;20301;-89
2022/10/05 13:24:58;;;;;;;1.15;0.57;;;26.60;1.00;;;;;;6218984;23;20024;-92
2022/10/05 13:28:18;;;;;;;3.67;0.40;;;27.50;1.00;;;;;;6219728;23;20051;-90
2022/10/05 13:31:14;;;;;;;1.38;0.50;;;27.90;1.00;;;;;;6218090;23;20361;-92
2022/10/05 13:34:49;;;;;;;1.40;0.38;;;27.70;1.00;;;;;;6219297;23;20021;-89
2022/10/05 13:37:49;;;;;;;3.78;0.50;;;27.60;1.00;;;;;;6208849;23;20028;-90
2022/10/05 13:40:52;;;;;;;1.38;0.57;;;26.70;1.00;;;;;;6221985;23;20099;-94
2022/10/05 13:47:06;;;;;;;0.60;0.43;;;26.80;1.00;;;;;;6217530;23;20025;-90
2022/10/05 13:50:25;;;;;;;1.73;0.52;;;26.10;1.00;;;;;;6193173;23;20030;-89
2022/10/05 13:53:33;;;;;;;2.45;0.55;;;26.00;1.00;;;;;;6216583;23;20024;-91
2022/10/05 13:56:32;;;;;;;2.08;0.60;;;26.20;1.00;;;;;;6220791;23;20032;-93
2022/10/05 13:59:31;;;;;;;2.50;0.70;;;26.90;1.00;;;;;;6225435;23;20080;-89
2022/10/05 14:02:28;;;;;;;0.88;0.40;;;27.30;1.00;;;;;;6220455;23;20213;-89
2022/10/05 14:05:26;;;;;;;1.35;0.57;;;27.00;1.00;;;;;;6200118;23;20112;-90
2022/10/05 14:08:17;;;;;;;6.80;0.88;;;26.20;1.00;;;;;;6220023;23;20107;-93
2022/10/05 14:11:30;;;;;;;0.50;0.50;;;26.50;1.00;;;;;;6219929;23;20024;-87
2022/10/05 14:14:27;;;;;;;3.65;0.60;;;26.90;1.00;;;;;;6218924;23;20029;-91
2022/10/05 14:17:32;;;;;;;3.75;0.60;;;27.50;1.00;;;;;;6204223;23;20045;-90
2022/10/05 14:20:30;;;;;;;2.00;0.60;;;28.00;1.00;;;;;;6224234;23;20114;-90
2022/10/05 14:23:25;;;;;;;2.15;0.60;;;27.90;1.00;;;;;;6248962;23;20043;-90
2022/10/05 14:26:23;;;;;;;1.02;0.50;;;28.30;1.00;;;;;;6249191;23;20031;-90
2022/10/05 14:29:13;;;;;;;1.55;0.45;;;28.80;1.00;;;;;;6249006;23;20027;-90
2022/10/05 14:32:12;;;;;;;1.10;0.50;;;28.30;1.00;;;;;;6247902;23;20027;-91
2022/10/05 14:35:16;;;;;;;4.35;1.00;;;27.20;1.00;;;;;;6253305;23;20109;-90
2022/10/05 14:38:28;;;;;;;1.83;0.50;;;27.40;1.00;;;;;;6249170;23;20035;-90
2022/10/05 14:41:23;;;;;;;3.13;0.75;;;27.50;1.00;;;;;;6246777;23;20035;-90
2022/10/05 14:44:16;;;;;;;0.75;0.57;;;27.40;1.00;;;;;;6248073;23;20112;-88
2022/10/05 14:47:22;;;;;;;;;;;27.20;1.00;;;;;;6227112;23;20024;-91
2022/10/05 14:50:24;;;;;;;1.67;0.60;;;27.70;1.00;;;;;;6248373;23;19919;-89
2022/10/05 14:53:34;;;;;;;1.40;0.73;;;28.90;1.00;;;;;;6248391;23;20035;-91
2022/10/05 14:57:26;;;;;;;1.57;0.90;;;28.50;1.00;;;;;;6249394;23;20048;-90
2022/10/05 15:00:55;;;;;;;2.13;0.80;;;28.10;1.00;;;;;;6196896;23;20274;-90
2022/10/05 15:04:17;;;;;;;2.88;1.20;;;26.60;1.00;;;;;;6226266;23;20115;-90
2022/10/05 15:07:26;;;;;;;1.77;0.75;;;26.40;1.00;;;;;;6231728;23;20024;-91
2022/10/05 15:10:49;;;;;;;;;;;26.90;1.00;;;;;;6253504;23;20107;-91
2022/10/05 15:13:41;;;;;;;2.20;0.70;;;26.80;1.00;;;;;;6099031;23;19944;-91
2022/10/05 15:16:32;;;;;;;0.60;0.60;;;26.40;1.00;;;;;;6248661;23;20406;-91
2022/10/05 15:19:31;;;;;;;0.75;0.60;;;26.30;1.00;;;;;;6247801;23;20682;-91
2022/10/05 15:27:04;;;;;;;2.28;0.65;;;25.30;1.00;;;;;;6245683;23;20008;-87
2022/10/05 15:34:10;;;;;;;6.28;1.20;;;24.40;1.00;;;;;;6271969;22;20016;-92
2022/10/05 15:37:23;;;;;;;2.10;0.70;;;23.60;1.00;;;;;;6262833;22;20039;-95
2022/10/05 15:40:38;;;;;;;1.45;0.80;;;23.20;1.00;;;;;;6267102;22;20019;-90
2022/10/05 15:43:46;;;;;;;1.50;0.80;;;23.60;1.00;;;;;;6257631;22;20039;-94
2022/10/05 15:46:42;;;;;;;1.20;0.82;;;23.50;1.00;;;;;;6283013;22;20047;-93
2022/10/05 15:49:57;;;;;;;1.67;0.60;;;23.50;1.00;;;;;;6280797;22;20099;-90
2022/10/05 15:53:10;;;;;;;2.08;0.90;;;23.80;1.00;;;;;;6284709;22;20051;-93
2022/10/05 15:56:07;;;;;;;2.88;0.60;;;23.60;1.00;;;;;;6258043;22;20024;-91
2022/10/05 15:59:23;;;;;;;2.78;0.70;;;23.70;1.00;;;;;;6256247;22;20092;-92
2022/10/05 16:02:50;;;;;;;4.13;0.88;;;23.70;1.00;;;;;;6280290;22;20031;-91
2022/10/05 16:10:20;;;;;;;1.25;0.77;;;23.30;1.00;;;;;;6278062;22;20007;-91
2022/10/05 16:13:32;;;;;;;2.30;0.93;;;23.40;1.00;;;;;;6274406;22;20062;-91
2022/10/05 16:16:31;;;;;;;3.15;1.40;;;23.20;1.00;;;;;;6256276;22;20027;-91
2022/10/05 16:19:57;;;;;;;2.60;1.38;;;23.00;1.00;;;;;;6284242;22;20104;-92
2022/10/05 16:23:20;;;;;;;4.03;1.38;;;22.10;1.00;;;;;;6192579;22;20034;-93
2022/10/05 16:26:44;;;;;;;3.47;0.95;;;21.00;1.00;;;;;;6260806;22;20035;-92
2022/10/05 16:30:09;;;;;;;3.03;1.00;;;20.50;1.00;;;;;;6260903;22;20024;-90